Time;durP1;ratioP1;P1;durP2;ratioP2;P2;SDS_P1;SDS_P2;PMS_P1;PMS_P2;Temp;Humidity;BMP_temperature;BMP_pressure;BME280_temperature;BME280_humidity;BME280_pressure;Samples;Min_cycle;Max_cycle;Signal;HPM_P1;HPM_P2
2020/12/02 00:02:35;;;;;;;16.20;7.85;;;;;;;2.76;72.33;101621.44;1792202;79;21576;-60
2020/12/02 00:05:08;;;;;;;12.05;6.33;;;;;;;2.82;72.36;101623.46;1790687;79;21206;-61
2020/12/02 00:07:36;;;;;;;11.88;6.62;;;;;;;2.79;72.34;101620.06;1792715;79;21207;-60
2020/12/02 00:10:06;;;;;;;13.60;7.05;;;;;;;2.78;72.28;101625.30;1792205;79;21171;-59
2020/12/02 00:12:33;;;;;;;11.53;6.50;;;;;;;2.73;72.53;101625.42;1781299;78;21210;-60
2020/12/02 00:15:03;;;;;;;12.35;6.33;;;;;;;2.69;72.54;101622.52;1797490;79;23538;-60
2020/12/02 00:17:30;;;;;;;10.38;5.85;;;;;;;2.69;72.48;101619.91;1781664;78;21215;-60
2020/12/02 00:19:59;;;;;;;10.35;5.95;;;;;;;2.77;72.50;101620.98;1800450;77;21433;-60
2020/12/02 00:22:27;;;;;;;10.43;6.17;;;;;;;2.77;72.42;101616.66;1775779;79;21483;-60
2020/12/02 00:24:55;;;;;;;11.25;5.58;;;;;;;2.74;72.46;101618.03;1806917;78;21386;-60
2020/12/02 00:27:28;;;;;;;10.15;6.00;;;;;;;2.72;72.59;101618.96;1787156;78;21396;-60
2020/12/02 00:29:56;;;;;;;12.63;6.33;;;;;;;2.71;72.62;101622.47;1762552;78;21213;-60
2020/12/02 00:32:36;;;;;;;10.70;5.80;;;;;;;2.69;72.62;101621.21;1792005;79;22538;-60
2020/12/02 00:35:11;;;;;;;11.40;6.17;;;;;;;2.75;72.50;101620.18;1790663;78;21203;-59
2020/12/02 00:37:38;;;;;;;10.80;6.08;;;;;;;2.81;72.44;101621.32;1791666;79;21158;-59
2020/12/02 00:40:06;;;;;;;12.43;5.92;;;;;;;2.84;72.22;101628.16;1791748;79;21432;-59
2020/12/02 00:42:34;;;;;;;10.03;5.37;;;;;;;2.78;72.22;101622.70;1792191;78;21215;-59
2020/12/02 00:45:04;;;;;;;12.63;5.97;;;;;;;2.72;72.37;101622.86;1791153;78;21222;-59
2020/12/02 00:47:31;;;;;;;9.85;5.40;;;;;;;2.69;72.35;101629.02;1767894;79;21927;-59
2020/12/02 00:49:59;;;;;;;11.65;5.92;;;;;;;2.62;72.44;101622.70;1798755;77;21637;-60
2020/12/02 00:52:27;;;;;;;14.30;6.25;;;;;;;2.61;72.47;101623.16;1780377;77;21264;-59
2020/12/02 00:54:55;;;;;;;11.63;5.95;;;;;;;2.69;72.35;101626.41;1791916;78;21215;-59
2020/12/02 00:57:31;;;;;;;12.28;6.40;;;;;;;2.75;72.30;101621.02;1791585;79;21167;-59
2020/12/02 00:59:59;;;;;;;10.03;5.78;;;;;;;2.79;72.27;101621.36;1793142;79;22570;-59
2020/12/02 01:02:37;;;;;;;15.78;6.65;;;;;;;2.78;72.13;101627.90;1792010;79;21223;-59
2020/12/02 01:05:11;;;;;;;11.18;5.70;;;;;;;2.74;72.15;101623.23;1791470;78;22544;-59
2020/12/02 01:07:41;;;;;;;12.85;6.35;;;;;;;2.67;72.21;101616.94;1790649;78;21488;-59
2020/12/02 01:10:10;;;;;;;15.23;6.20;;;;;;;2.59;72.43;101622.36;1792141;78;21648;-59
2020/12/02 01:12:38;;;;;;;11.25;6.30;;;;;;;2.62;72.48;101622.70;1790893;78;21162;-59
2020/12/02 01:15:08;;;;;;;11.22;5.08;;;;;;;2.69;72.30;101617.31;1789367;79;21163;-60
2020/12/02 01:17:37;;;;;;;13.30;7.15;;;;;;;2.74;72.23;101624.53;1782198;78;22071;-60
2020/12/02 01:20:08;;;;;;;11.40;5.87;;;;;;;2.77;72.24;101614.06;1807915;77;21151;-59
2020/12/02 01:22:41;;;;;;;13.03;6.83;;;;;;;2.75;72.24;101615.83;1792467;78;21661;-60
2020/12/02 01:25:20;;;;;;;11.08;5.87;;;;;;;2.75;72.33;101624.08;1790937;78;21214;-59
2020/12/02 01:28:01;;;;;;;11.60;6.17;;;;;;;2.73;72.34;101618.92;1791963;78;21163;-60
2020/12/02 01:30:28;;;;;;;12.82;6.62;;;;;;;2.69;72.21;101617.31;1762122;79;23638;-59
2020/12/02 01:32:55;;;;;;;13.08;6.87;;;;;;;2.65;72.23;101616.97;1793112;78;21206;-59
2020/12/02 01:35:26;;;;;;;11.30;5.58;;;;;;;2.67;72.21;101608.68;1796840;78;21163;-59
2020/12/02 01:38:04;;;;;;;10.38;5.80;;;;;;;2.77;71.76;101600.19;1768565;80;21595;-59
2020/12/02 01:40:33;;;;;;;11.63;6.65;;;;;;;2.78;71.60;101607.10;1808577;78;21151;-59
2020/12/02 01:43:05;;;;;;;13.88;6.80;;;;;;;2.75;71.60;101601.53;1809405;78;21372;-59
2020/12/02 01:45:36;;;;;;;14.95;7.50;;;;;;;2.73;71.68;101597.28;1807306;77;21185;-59
2020/12/02 01:48:46;;;;;;;12.13;6.60;;;;;;;2.72;71.72;101603.36;1783328;78;21463;-59
2020/12/02 01:51:40;;;;;;;12.63;7.45;;;;;;;2.69;71.84;101603.44;1766152;79;21194;-60
2020/12/02 01:54:13;;;;;;;12.25;6.72;;;;;;;2.69;71.92;101604.74;1780259;79;21199;-59
2020/12/02 01:57:03;;;;;;;12.30;6.30;;;;;;;2.79;71.62;101593.19;1807915;77;21394;-59
2020/12/02 02:00:05;;;;;;;10.65;4.72;;;;;;;2.90;71.50;101597.65;1773429;78;21168;-59
2020/12/02 02:03:14;;;;;;;11.93;6.62;;;;;;;3.01;71.27;101593.45;1801958;78;22298;-60
2020/12/02 02:06:14;;;;;;;11.22;6.45;;;;;;;3.00;71.25;101597.40;1682720;81;21252;-59
2020/12/02 02:08:42;;;;;;;13.55;6.83;;;;;;;3.01;71.31;101588.25;1723166;81;22367;-60
2020/12/02 02:11:18;;;;;;;9.53;6.00;;;;;;;3.02;71.24;101596.44;1690382;82;21271;-60
2020/12/02 02:14:02;;;;;;;16.10;6.90;;;;;;;2.98;70.98;101587.88;1695171;81;21758;-60
2020/12/02 02:16:40;;;;;;;11.10;6.37;;;;;;;2.92;71.04;101582.01;1717701;82;21189;-60
2020/12/02 02:19:22;;;;;;;10.50;6.17;;;;;;;2.89;71.06;101585.98;1722878;81;21245;-60
2020/12/02 02:21:55;;;;;;;13.38;6.47;;;;;;;2.96;70.97;101587.54;1740727;81;21397;-60
2020/12/02 02:24:23;;;;;;;10.45;5.53;;;;;;;3.07;70.80;101585.45;1740213;81;21789;-60
2020/12/02 02:26:53;;;;;;;13.18;6.42;;;;;;;3.08;70.77;101581.97;1723604;82;21202;-60
2020/12/02 02:29:36;;;;;;;11.05;5.62;;;;;;;3.08;70.51;101585.87;1724630;82;21490;-60
2020/12/02 02:32:12;;;;;;;10.82;6.05;;;;;;;3.01;70.51;101584.36;1723203;82;21561;-59
2020/12/02 02:34:48;;;;;;;14.00;6.33;;;;;;;2.96;70.63;101588.84;1724215;81;21220;-60
2020/12/02 02:37:16;;;;;;;11.35;5.97;;;;;;;2.87;70.69;101585.19;1701050;81;21235;-59
2020/12/02 02:39:45;;;;;;;9.43;5.47;;;;;;;2.83;70.78;101587.48;1690702;83;21225;-59
2020/12/02 02:42:30;;;;;;;10.15;5.90;;;;;;;2.84;70.60;101586.57;1690213;81;21207;-59
2020/12/02 02:45:01;;;;;;;10.73;5.90;;;;;;;2.92;70.30;101591.11;1693123;82;21243;-59
2020/12/02 02:47:29;;;;;;;10.55;5.12;;;;;;;2.98;70.33;101590.94;1699149;81;21267;-59
2020/12/02 02:49:56;;;;;;;9.75;5.17;;;;;;;3.03;70.27;101586.91;1718375;82;21825;-59
2020/12/02 02:52:24;;;;;;;9.83;5.95;;;;;;;3.03;70.18;101589.06;1718360;82;21191;-60
2020/12/02 02:54:53;;;;;;;14.25;6.60;;;;;;;3.02;70.26;101591.23;1716703;82;21175;-60
2020/12/02 02:57:21;;;;;;;11.63;5.53;;;;;;;2.98;70.10;101591.78;1693415;82;21650;-60
2020/12/02 02:59:48;;;;;;;11.33;5.22;;;;;;;2.94;70.07;101595.81;1714939;82;21254;-60
2020/12/02 03:02:16;;;;;;;10.35;6.08;;;;;;;2.87;70.11;101593.83;1724071;82;22606;-60
2020/12/02 03:04:43;;;;;;;12.95;6.08;;;;;;;2.83;70.28;101593.98;1720114;82;21173;-60
2020/12/02 03:07:14;;;;;;;9.98;5.62;;;;;;;2.87;70.19;101596.43;1712852;82;21222;-60
2020/12/02 03:09:44;;;;;;;14.40;5.78;;;;;;;2.94;69.87;101595.81;1769865;80;21138;-60
2020/12/02 03:12:11;;;;;;;10.15;5.25;;;;;;;2.98;69.84;101598.74;1768070;80;21422;-60
2020/12/02 03:14:41;;;;;;;15.83;6.22;;;;;;;3.03;69.81;101602.52;1769303;80;21172;-60
2020/12/02 03:17:13;;;;;;;14.30;6.25;;;;;;;2.98;69.80;101603.48;1765939;80;22075;-59
2020/12/02 03:19:46;;;;;;;12.55;6.45;;;;;;;2.94;69.97;101600.58;1767421;80;21355;-58
2020/12/02 03:22:14;;;;;;;13.93;7.35;;;;;;;2.88;70.05;101599.45;1768403;80;21176;-59
2020/12/02 03:24:43;;;;;;;12.15;5.70;;;;;;;2.81;70.02;101592.73;1767416;80;21215;-60
2020/12/02 03:27:11;;;;;;;11.97;5.87;;;;;;;2.72;70.18;101596.44;1768412;80;21137;-59
2020/12/02 03:29:38;;;;;;;14.40;6.72;;;;;;;2.67;70.14;101606.54;1767688;80;21180;-60
2020/12/02 03:32:06;;;;;;;11.38;5.53;;;;;;;2.66;70.10;101597.05;1767729;80;21773;-60
2020/12/02 03:34:33;;;;;;;11.30;6.28;;;;;;;2.74;69.85;101601.56;1766716;80;21689;-60
2020/12/02 03:37:01;;;;;;;12.47;6.42;;;;;;;2.81;69.84;101603.55;1705649;82;21808;-59
2020/12/02 03:39:29;;;;;;;11.78;5.78;;;;;;;2.77;69.85;101603.66;1731336;82;21978;-59
2020/12/02 03:41:56;;;;;;;12.25;7.20;;;;;;;2.79;69.91;101603.59;1767634;80;21183;-59
2020/12/02 03:44:24;;;;;;;15.18;7.70;;;;;;;2.76;69.73;101603.25;1767539;80;21187;-59
2020/12/02 03:46:51;;;;;;;17.77;8.00;;;;;;;2.66;69.60;101604.40;1767778;80;22554;-60
2020/12/02 03:49:19;;;;;;;12.35;7.17;;;;;;;2.53;69.78;101599.13;1767618;80;23540;-59
2020/12/02 03:51:46;;;;;;;14.33;6.85;;;;;;;2.44;70.16;101601.95;1766640;80;21219;-59
2020/12/02 03:54:13;;;;;;;12.65;7.12;;;;;;;2.44;70.17;101600.66;1765976;80;21172;-59
2020/12/02 03:56:43;;;;;;;12.13;7.15;;;;;;;2.53;69.96;101602.56;1767201;80;21814;-59
2020/12/02 03:59:10;;;;;;;12.53;6.80;;;;;;;2.54;69.90;101600.81;1766002;80;21192;-59
2020/12/02 04:01:38;;;;;;;14.98;8.33;;;;;;;2.51;69.83;101603.52;1715246;82;21256;-59
2020/12/02 04:04:05;;;;;;;14.20;8.50;;;;;;;2.45;69.80;101599.77;1758562;80;21512;-59
2020/12/02 04:06:32;;;;;;;16.00;8.00;;;;;;;2.43;69.94;101602.87;1709136;82;21205;-59
2020/12/02 04:09:00;;;;;;;16.00;8.13;;;;;;;2.43;70.09;101602.87;1683017;82;21200;-59
2020/12/02 04:11:28;;;;;;;18.67;8.70;;;;;;;2.36;69.87;101607.38;1759179;80;21191;-59
2020/12/02 04:13:55;;;;;;;14.07;8.28;;;;;;;2.29;70.02;101604.08;1757475;80;21472;-59
2020/12/02 04:16:23;;;;;;;16.82;7.45;;;;;;;2.31;69.89;101608.78;1755354;80;22621;-59
2020/12/02 04:18:50;;;;;;;13.72;8.10;;;;;;;2.38;69.83;101605.58;1707253;82;21208;-60
2020/12/02 04:21:24;;;;;;;16.00;9.15;;;;;;;2.41;69.74;101609.41;1682963;82;21610;-60
2020/12/02 04:23:53;;;;;;;15.95;9.13;;;;;;;2.43;69.94;101605.47;1758282;80;21235;-60
2020/12/02 04:26:22;;;;;;;16.17;8.28;;;;;;;2.41;69.77;101608.95;1755659;80;22639;-60
2020/12/02 04:28:51;;;;;;;15.98;8.45;;;;;;;2.37;69.55;101609.93;1754068;80;21252;-59
2020/12/02 04:31:19;;;;;;;13.10;7.58;;;;;;;2.29;69.76;101605.38;1708754;82;21656;-60
2020/12/02 04:33:47;;;;;;;13.75;7.85;;;;;;;2.21;69.84;101608.61;1684762;82;21682;-60
2020/12/02 04:36:16;;;;;;;16.02;7.80;;;;;;;2.18;69.67;101604.34;1758396;80;21160;-60
2020/12/02 04:38:44;;;;;;;19.52;8.90;;;;;;;2.23;69.70;101605.53;1708935;82;22624;-60
2020/12/02 04:41:15;;;;;;;15.40;7.92;;;;;;;2.24;69.63;101603.34;1682270;82;21223;-60
2020/12/02 04:43:45;;;;;;;15.35;8.20;;;;;;;2.19;69.69;101606.52;1755830;80;21706;-59
2020/12/02 04:46:20;;;;;;;15.78;8.65;;;;;;;2.13;69.66;101612.69;1757400;80;21194;-60
2020/12/02 04:48:58;;;;;;;18.03;8.40;;;;;;;2.09;69.63;101608.94;1756472;80;21216;-59
2020/12/02 04:51:27;;;;;;;18.45;7.72;;;;;;;2.00;69.76;101606.09;1759493;80;22744;-59
2020/12/02 04:53:57;;;;;;;18.50;8.35;;;;;;;2.01;70.08;101604.77;1683536;82;21231;-60
2020/12/02 04:56:26;;;;;;;18.12;10.05;;;;;;;2.09;69.97;101606.34;1755353;80;21238;-59
2020/12/02 04:58:55;;;;;;;18.20;7.70;;;;;;;2.18;69.78;101604.80;1753853;80;21850;-60
2020/12/02 05:01:34;;;;;;;17.75;8.45;;;;;;;2.21;69.56;101611.21;1754723;80;21631;-61
2020/12/02 05:04:10;;;;;;;18.48;8.68;;;;;;;2.20;69.65;101608.20;1709427;82;21224;-62
2020/12/02 05:06:43;;;;;;;15.95;8.43;;;;;;;2.22;69.69;101605.14;1691792;82;21216;-61
2020/12/02 05:09:25;;;;;;;15.90;9.25;;;;;;;2.19;69.73;101607.35;1758872;80;22643;-60
2020/12/02 05:11:58;;;;;;;15.85;9.15;;;;;;;2.22;69.62;101602.55;1759395;80;21246;-62
2020/12/02 05:14:42;;;;;;;18.10;10.32;;;;;;;2.21;69.55;101601.67;1755775;80;21805;-62
2020/12/02 05:17:26;;;;;;;19.52;9.68;;;;;;;2.23;69.46;101612.02;1756495;80;23235;-61
2020/12/02 05:20:21;;;;;;;19.57;8.78;;;;;;;2.20;69.39;101609.49;1706596;82;22073;-62
2020/12/02 05:22:51;;;;;;;14.75;8.50;;;;;;;2.25;69.18;101607.63;1686583;82;22602;-61
2020/12/02 05:25:32;;;;;;;16.45;8.53;;;;;;;2.33;68.94;101614.78;1708276;81;21224;-64
2020/12/02 05:28:28;;;;;;;14.03;8.68;;;;;;;2.32;69.11;101624.78;1756259;80;21942;-63
2020/12/02 05:31:16;;;;;;;16.10;8.27;;;;;;;2.32;69.32;101614.82;1759720;80;21504;-64
2020/12/02 05:33:44;;;;;;;14.83;7.30;;;;;;;2.30;69.22;101620.51;1758402;80;21655;-63
2020/12/02 05:36:22;;;;;;;13.83;8.35;;;;;;;2.29;69.15;101617.52;1683420;82;21639;-63
2020/12/02 05:38:57;;;;;;;13.93;7.42;;;;;;;2.26;69.21;101622.34;1683447;82;21225;-62
2020/12/02 05:41:25;;;;;;;14.63;7.75;;;;;;;2.19;69.23;101620.34;1738704;80;21228;-63
2020/12/02 05:44:16;;;;;;;16.30;8.85;;;;;;;2.11;69.53;101621.42;1757752;80;21164;-63
2020/12/02 05:46:49;;;;;;;15.48;7.33;;;;;;;2.14;69.60;101623.50;1757807;80;21203;-62
2020/12/02 05:49:40;;;;;;;12.43;7.35;;;;;;;2.20;69.51;101628.97;1756526;80;21695;-65
2020/12/02 05:52:33;;;;;;;16.90;7.70;;;;;;;2.23;69.60;101628.90;1755030;80;21631;-61
2020/12/02 05:55:31;;;;;;;14.90;7.33;;;;;;;2.20;69.76;101625.95;1754749;80;21357;-63
2020/12/02 05:58:16;;;;;;;15.40;6.85;;;;;;;2.18;69.90;101631.60;1751834;80;21666;-63
2020/12/02 06:00:44;;;;;;;13.48;7.15;;;;;;;2.14;69.78;101631.74;1742118;80;21434;-64
2020/12/02 06:03:16;;;;;;;12.05;5.85;;;;;;;2.08;70.00;101637.92;1747061;80;21190;-66
2020/12/02 06:05:44;;;;;;;12.63;7.35;;;;;;;2.09;70.01;101634.45;1736165;80;21245;-64
2020/12/02 06:08:32;;;;;;;11.50;6.35;;;;;;;2.13;69.98;101637.36;1739517;80;21217;-63
2020/12/02 06:11:22;;;;;;;14.78;9.03;;;;;;;2.15;70.00;101639.92;1736944;80;23147;-62
2020/12/02 06:13:58;;;;;;;16.32;7.58;;;;;;;2.27;69.58;101649.15;1737170;80;21678;-65
2020/12/02 06:16:41;;;;;;;15.18;6.62;;;;;;;2.37;69.46;101645.42;1715631;80;21177;-65
2020/12/02 06:19:30;;;;;;;14.50;6.50;;;;;;;2.41;69.42;101646.61;1737375;80;21638;-61
2020/12/02 06:22:01;;;;;;;12.43;6.47;;;;;;;2.41;69.64;101650.52;1738656;80;21239;-68
2020/12/02 06:24:41;;;;;;;13.08;6.45;;;;;;;2.42;69.69;101652.66;1738029;80;21752;-64
2020/12/02 06:27:27;;;;;;;14.18;7.72;;;;;;;2.43;69.70;101648.33;1738584;80;21208;-63
2020/12/02 06:30:10;;;;;;;12.20;7.22;;;;;;;2.46;69.62;101654.30;1729115;80;21249;-66
2020/12/02 06:37:26;;;;;;;14.93;6.72;;;;;;;2.57;69.23;101646.20;1794901;78;22688;-65
2020/12/02 06:39:58;;;;;;;12.40;7.45;;;;;;;2.56;69.25;101647.13;1774979;78;21172;-66
2020/12/02 06:42:38;;;;;;;14.20;7.10;;;;;;;2.56;69.24;101644.06;1747127;80;21372;-64
2020/12/02 06:45:34;;;;;;;13.62;7.42;;;;;;;2.68;68.96;101640.28;1741203;82;21198;-64
2020/12/02 06:48:05;;;;;;;;;;;;;;;2.79;68.61;101639.98;1711476;82;22667;-65
2020/12/02 06:50:34;;;;;;;13.08;7.25;;;;;;;2.87;68.32;101642.38;1720691;82;20359;-59
2020/12/02 06:53:13;;;;;;;15.10;8.93;;;;;;;2.89;68.16;101637.98;1721674;81;21200;-70
2020/12/02 06:55:44;;;;;;;16.23;7.97;;;;;;;2.90;68.06;101644.45;1721708;82;21260;-65
2020/12/02 06:58:14;;;;;;;15.32;7.67;;;;;;;2.90;68.15;101648.80;1735099;80;21181;-66
2020/12/02 07:00:50;;;;;;;11.28;6.70;;;;;;;2.92;68.26;101649.61;1735109;80;21191;-64
2020/12/02 07:03:42;;;;;;;12.05;7.60;;;;;;;2.96;68.15;101646.05;1735200;81;21203;-62
2020/12/02 07:06:28;;;;;;;16.70;7.85;;;;;;;2.95;68.18;101643.87;1734023;80;21200;-60
2020/12/02 07:09:28;;;;;;;14.10;7.67;;;;;;;2.96;68.11;101652.55;1734965;80;22552;-66
2020/12/02 07:12:02;;;;;;;23.32;10.50;;;;;;;2.91;68.05;101645.32;1725078;81;21756;-61
2020/12/02 07:14:38;;;;;;;15.28;8.90;;;;;;;2.85;67.94;101646.78;1696937;82;21222;-60
2020/12/02 07:17:09;;;;;;;13.85;7.75;;;;;;;2.81;67.98;101652.94;1720115;82;21253;-61
2020/12/02 07:19:40;;;;;;;17.55;9.60;;;;;;;2.82;67.95;101653.36;1722034;81;21226;-61
2020/12/02 07:22:13;;;;;;;28.92;15.63;;;;;;;2.82;68.01;101649.00;1692581;84;21221;-61
2020/12/02 07:24:48;;;;;;;16.37;8.78;;;;;;;2.86;68.03;101660.16;1704379;82;21271;-62
2020/12/02 07:27:19;;;;;;;15.48;7.50;;;;;;;2.98;67.75;101652.89;1707389;82;21265;-63
2020/12/02 07:29:57;;;;;;;13.62;6.72;;;;;;;3.08;67.49;101653.48;1722833;82;21131;-63
2020/12/02 07:32:25;;;;;;;15.32;7.35;;;;;;;3.14;67.37;101655.05;1721833;82;21245;-64
2020/12/02 07:35:05;;;;;;;15.30;8.93;;;;;;;3.13;67.04;101648.16;1722174;81;21458;-67
2020/12/02 07:37:33;;;;;;;13.80;7.30;;;;;;;3.11;67.13;101650.80;1715410;81;21265;-62
2020/12/02 07:40:05;;;;;;;15.60;8.75;;;;;;;3.11;67.11;101649.50;1723819;81;21218;-63
2020/12/02 07:42:39;;;;;;;12.73;7.50;;;;;;;3.09;67.06;101650.00;1716220;81;21310;-60
2020/12/02 07:45:21;;;;;;;14.70;8.28;;;;;;;3.10;67.06;101656.89;1722513;81;22716;-61
2020/12/02 07:47:53;;;;;;;22.62;10.18;;;;;;;3.05;66.90;101658.77;1697163;82;23710;-63
2020/12/02 07:50:43;;;;;;;20.80;9.20;;;;;;;2.98;67.05;101659.84;1696992;82;21222;-62
2020/12/02 07:53:35;;;;;;;17.92;8.18;;;;;;;2.96;66.91;101659.89;1721908;82;21391;-62
2020/12/02 07:56:05;;;;;;;18.80;9.63;;;;;;;2.90;66.94;101662.64;1723136;81;21254;-61
2020/12/02 07:58:36;;;;;;;15.08;8.15;;;;;;;2.83;67.20;101657.67;1715243;81;21215;-61
2020/12/02 08:01:36;;;;;;;17.50;8.93;;;;;;;2.80;67.26;101668.99;1693960;82;22354;-63
2020/12/02 08:04:34;;;;;;;16.75;8.58;;;;;;;2.81;67.32;101661.61;1701662;81;21285;-60
2020/12/02 08:07:09;;;;;;;17.80;8.88;;;;;;;2.95;67.04;101662.52;1718911;82;21242;-60
2020/12/02 08:09:48;;;;;;;16.60;9.47;;;;;;;3.07;66.86;101663.93;1698387;82;21733;-60
2020/12/02 08:12:29;;;;;;;20.10;9.33;;;;;;;3.10;66.77;101654.29;1719305;81;21235;-61
2020/12/02 08:15:07;;;;;;;16.42;9.40;;;;;;;3.13;66.79;101654.66;1719859;81;22634;-61
2020/12/02 08:17:39;;;;;;;23.45;10.18;;;;;;;3.15;66.68;101653.70;1721089;81;21796;-60
2020/12/02 08:20:33;;;;;;;17.27;10.00;;;;;;;3.16;66.89;101657.15;1721051;81;21207;-60
2020/12/02 08:23:25;;;;;;;22.02;9.60;;;;;;;3.13;66.82;101652.06;1654166;82;21676;-60
2020/12/02 08:26:06;;;;;;;16.67;10.32;;;;;;;3.12;66.86;101655.55;1722520;82;21670;-59
2020/12/02 08:28:40;;;;;;;17.02;9.10;;;;;;;3.06;66.88;101655.71;1692289;83;21431;-60
2020/12/02 08:31:31;;;;;;;17.57;9.95;;;;;;;3.00;67.03;101654.15;1694462;82;21668;-60
2020/12/02 08:34:19;;;;;;;17.20;10.85;;;;;;;2.97;67.12;101650.33;1667151;84;21235;-59
2020/12/02 08:36:51;;;;;;;19.35;9.83;;;;;;;2.95;67.27;101648.22;1701714;82;21246;-61
2020/12/02 08:39:33;;;;;;;18.92;9.90;;;;;;;3.01;67.27;101641.98;1702045;82;21165;-60
2020/12/02 08:42:03;;;;;;;15.88;9.80;;;;;;;3.17;67.03;101644.56;1700598;82;21256;-60
2020/12/02 08:44:35;;;;;;;19.57;9.58;;;;;;;3.33;66.67;101641.92;1670492;84;21314;-59
2020/12/02 08:47:13;;;;;;;16.50;8.98;;;;;;;3.44;66.60;101636.38;1703264;82;21251;-61
2020/12/02 08:49:42;;;;;;;20.48;10.20;;;;;;;3.47;66.56;101632.39;1702149;82;21233;-60
2020/12/02 08:52:12;;;;;;;18.40;10.70;;;;;;;3.50;66.54;101633.61;1698939;82;21168;-61
2020/12/02 08:54:40;;;;;;;21.15;11.20;;;;;;;3.51;66.40;101626.64;1686486;83;21648;-60
2020/12/02 08:57:11;;;;;;;18.87;9.48;;;;;;;3.51;66.05;101627.94;1699376;82;21213;-60
2020/12/02 08:59:41;;;;;;;20.60;10.90;;;;;;;3.48;66.22;101628.91;1700114;82;21211;-63
2020/12/02 09:02:12;;;;;;;20.92;11.35;;;;;;;3.45;66.16;101625.09;1701076;82;22626;-60
2020/12/02 09:04:42;;;;;;;19.45;11.03;;;;;;;3.43;66.11;101630.80;1699236;82;21187;-62
2020/12/02 09:07:10;;;;;;;21.90;11.18;;;;;;;3.41;66.13;101626.06;1699818;82;21258;-62
2020/12/02 09:09:40;;;;;;;18.70;11.28;;;;;;;3.43;66.00;101622.99;1700731;82;21223;-60
2020/12/02 09:12:08;;;;;;;21.48;12.50;;;;;;;3.44;66.07;101625.98;1701214;82;21180;-60
2020/12/02 09:14:36;;;;;;;18.90;10.10;;;;;;;3.46;66.13;101624.63;1699987;82;21203;-61
2020/12/02 09:17:04;;;;;;;18.12;9.95;;;;;;;3.57;65.92;101629.06;1698623;82;21178;-62
2020/12/02 09:19:31;;;;;;;18.12;10.28;;;;;;;3.70;65.56;101624.34;1697721;82;21393;-60
2020/12/02 09:21:59;;;;;;;16.40;10.20;;;;;;;3.81;65.24;101630.04;1698442;82;21225;-60
2020/12/02 09:24:26;;;;;;;20.57;10.65;;;;;;;3.87;64.97;101622.05;1699712;82;21215;-62
2020/12/02 09:26:55;;;;;;;18.77;10.10;;;;;;;3.87;64.94;101615.53;1698654;83;21239;-61
2020/12/02 09:29:24;;;;;;;18.20;9.23;;;;;;;3.84;65.17;101621.30;1699001;82;21204;-69
2020/12/02 09:31:52;;;;;;;16.40;9.35;;;;;;;3.79;65.29;101617.98;1699269;82;23035;-74
2020/12/02 09:34:22;;;;;;;20.88;10.40;;;;;;;3.73;65.28;101620.31;1691993;82;21239;-63
2020/12/02 09:36:50;;;;;;;16.62;10.10;;;;;;;3.69;65.52;101618.27;1691861;83;21495;-61
2020/12/02 09:39:18;;;;;;;20.00;10.90;;;;;;;3.67;65.75;101616.63;1691676;82;21179;-61
2020/12/02 09:42:36;;;;;;;18.50;9.75;;;;;;;3.64;65.62;101618.86;1665279;84;21239;-61
2020/12/02 09:45:09;;;;;;;17.02;10.53;;;;;;;3.61;65.69;101613.74;1629998;85;22570;-61
2020/12/02 09:47:37;;;;;;;22.32;11.40;;;;;;;3.53;65.86;101606.63;1688314;82;21200;-61
2020/12/02 09:50:06;;;;;;;25.20;10.75;;;;;;;3.48;65.93;101613.30;1661586;84;21236;-63
2020/12/02 09:52:45;;;;;;;17.12;9.83;;;;;;;3.48;66.11;101615.02;1658152;84;21266;-65
2020/12/02 09:55:24;;;;;;;18.65;10.00;;;;;;;3.43;66.29;101609.11;1664871;84;21207;-62
2020/12/02 09:57:52;;;;;;;20.10;9.73;;;;;;;3.48;66.33;101604.19;1658983;84;21534;-61
2020/12/02 10:00:23;;;;;;;16.77;9.65;;;;;;;3.59;66.11;101610.80;1696457;82;21250;-61
2020/12/02 10:03:23;;;;;;;20.88;9.08;;;;;;;3.66;65.99;101607.94;1689233;82;21195;-62
2020/12/02 10:06:13;;;;;;;18.12;9.10;;;;;;;3.72;65.94;101611.66;1697254;82;21241;-63
2020/12/02 10:09:35;;;;;;;19.52;9.03;;;;;;;3.70;66.09;101602.22;1697429;83;22663;-63
2020/12/02 10:12:38;;;;;;;19.98;11.70;;;;;;;3.68;66.29;101604.87;1697617;82;21407;-64
2020/12/02 10:15:32;;;;;;;20.97;10.72;;;;;;;3.64;66.29;101607.14;1670016;83;21851;-61
2020/12/02 10:18:29;;;;;;;20.57;10.88;;;;;;;3.59;66.49;101610.34;1668185;84;22703;-61
2020/12/02 10:21:10;;;;;;;24.40;11.97;;;;;;;3.52;66.62;101612.28;1696309;82;21194;-65
2020/12/02 10:24:08;;;;;;;18.98;10.72;;;;;;;3.48;66.61;101617.20;1692660;82;21695;-64
2020/12/02 10:26:44;;;;;;;18.32;11.12;;;;;;;3.42;66.69;101613.47;1683618;82;23224;-62
2020/12/02 10:29:28;;;;;;;;;;;;;;;3.38;66.78;101613.60;1704732;82;21078;-63
2020/12/02 10:32:29;;;;;;;17.98;10.78;;;;;;;3.33;67.02;101615.91;1700032;82;20291;-62
2020/12/02 10:34:56;;;;;;;20.35;12.95;;;;;;;3.24;67.24;101614.02;1700112;82;21902;-63
2020/12/02 10:37:35;;;;;;;19.55;10.75;;;;;;;3.30;67.27;101615.99;1705065;82;21206;-65
2020/12/02 10:40:05;;;;;;;17.67;11.03;;;;;;;3.42;67.10;101611.33;1701976;82;22388;-64
2020/12/02 10:42:59;;;;;;;17.52;9.93;;;;;;;3.51;66.92;101605.40;1669520;84;21266;-64
2020/12/02 10:45:34;;;;;;;17.05;9.53;;;;;;;3.57;66.90;101602.20;1668099;84;21252;-62
2020/12/02 10:48:35;;;;;;;22.32;11.83;;;;;;;3.57;66.89;101608.25;1700348;83;21223;-63
2020/12/02 10:51:03;;;;;;;20.95;13.20;;;;;;;3.57;66.99;101611.31;1699280;82;21272;-62
2020/12/02 10:53:30;;;;;;;21.97;12.25;;;;;;;3.58;67.05;101608.66;1699455;82;21372;-61
2020/12/02 10:55:58;;;;;;;20.77;11.68;;;;;;;3.58;67.03;101606.48;1669133;84;21245;-63
2020/12/02 10:58:29;;;;;;;18.73;12.25;;;;;;;3.56;66.98;101610.44;1667241;84;21500;-64
2020/12/02 11:00:59;;;;;;;19.90;12.40;;;;;;;3.52;67.04;101608.38;1696838;83;22551;-62
2020/12/02 11:03:32;;;;;;;22.62;12.25;;;;;;;3.51;67.07;101604.52;1669314;84;21219;-64
2020/12/02 11:06:26;;;;;;;19.50;11.20;;;;;;;3.49;67.12;101604.56;1699415;82;22850;-62
2020/12/02 11:09:24;;;;;;;24.67;11.45;;;;;;;3.45;67.26;101612.54;1699002;82;21251;-63
2020/12/02 11:12:21;;;;;;;20.55;11.38;;;;;;;3.50;67.26;101606.28;1700044;82;21211;-64
2020/12/02 11:15:28;;;;;;;23.65;11.97;;;;;;;3.63;66.96;101596.78;1698690;82;21709;-62
2020/12/02 11:18:43;;;;;;;22.25;11.43;;;;;;;3.71;66.91;101601.30;1699148;82;21211;-64
2020/12/02 11:21:42;;;;;;;18.50;11.28;;;;;;;3.75;66.93;101598.14;1698078;82;21826;-64
2020/12/02 11:24:28;;;;;;;20.75;12.43;;;;;;;3.70;67.14;101595.70;1695713;82;21250;-62
2020/12/02 11:27:02;;;;;;;21.12;11.78;;;;;;;3.65;67.18;101597.15;1687431;82;21270;-61
2020/12/02 11:29:32;;;;;;;20.75;12.63;;;;;;;3.63;67.12;101597.66;1670184;83;21230;-62
2020/12/02 11:32:34;;;;;;;27.20;11.85;;;;;;;3.63;67.23;101590.27;1690888;82;21218;-60
2020/12/02 11:35:28;;;;;;;19.32;10.88;;;;;;;3.61;67.22;101592.08;1667677;82;21696;-61
2020/12/02 11:41:17;;;;;;;18.90;11.60;;;;;;;3.49;67.31;101590.25;1818800;75;22443;-61
2020/12/02 11:43:49;;;;;;;22.07;11.90;;;;;;;3.40;67.49;101595.76;1821194;77;21292;-61
2020/12/02 11:46:18;;;;;;;18.05;10.78;;;;;;;3.33;67.62;101594.25;1824664;77;21531;-61
2020/12/02 11:49:09;;;;;;;25.88;11.80;;;;;;;3.37;67.57;101588.50;1824666;77;21146;-61
2020/12/02 11:51:46;;;;;;;19.07;11.05;;;;;;;3.47;67.40;101590.76;1821458;77;22514;-62
2020/12/02 11:54:15;;;;;;;19.27;9.93;;;;;;;3.56;67.28;101593.98;1820139;77;21219;-59
2020/12/02 11:56:51;;;;;;;19.12;10.13;;;;;;;3.61;67.32;101589.48;1821973;77;21902;-62
2020/12/02 11:59:28;;;;;;;22.32;13.53;;;;;;;3.62;67.40;101591.19;1823419;77;21192;-61
2020/12/02 12:02:25;;;;;;;19.87;11.12;;;;;;;3.66;67.35;101588.88;1824167;76;21005;-61
2020/12/02 12:05:07;;;;;;;19.60;12.13;;;;;;;3.64;67.36;101591.98;1792499;77;21200;-60
2020/12/02 12:07:44;;;;;;;19.30;11.18;;;;;;;3.62;67.37;101588.59;1819866;77;21191;-62
2020/12/02 12:10:32;;;;;;;20.97;10.65;;;;;;;3.56;67.47;101590.91;1821589;77;21347;-61
2020/12/02 12:13:18;;;;;;;20.25;12.40;;;;;;;3.51;67.65;101587.61;1819115;77;21382;-62
2020/12/02 12:16:00;;;;;;;17.85;10.43;;;;;;;3.46;67.75;101579.97;1815726;76;21821;-62